sensor_id;sensor_type;location;lat;lon;timestamp;pressure;altitude;pressure_sealevel;temperature;humidity
40596;BME280;26304;48.794;9.820;2023-04-29T00:01:43;96002.09;;;19.32;55.16
40596;BME280;26304;48.794;9.820;2023-04-29T00:07:26;95992.69;;;19.31;55.20
40596;BME280;26304;48.794;9.820;2023-04-29T00:13:09;95993.09;;;19.29;55.60
40596;BME280;26304;48.794;9.820;2023-04-29T00:18:52;95999.09;;;19.30;55.61
40596;BME280;26304;48.794;9.820;2023-04-29T00:24:36;95987.81;;;19.26;55.20
40596;BME280;26304;48.794;9.820;2023-04-29T00:30:19;95994.22;;;19.24;55.40
40596;BME280;26304;48.794;9.820;2023-04-29T00:36:01;95992.00;;;19.19;55.57
40596;BME280;26304;48.794;9.820;2023-04-29T00:41:45;95995.41;;;19.16;55.57
40596;BME280;26304;48.794;9.820;2023-04-29T00:47:28;95993.16;;;19.15;55.84
40596;BME280;26304;48.794;9.820;2023-04-29T00:53:10;96004.41;;;19.19;55.62
40596;BME280;26304;48.794;9.820;2023-04-29T00:58:54;96003.28;;;19.20;55.70
40596;BME280;26304;48.794;9.820;2023-04-29T01:04:37;96004.03;;;19.20;55.18
40596;BME280;26304;48.794;9.820;2023-04-29T01:10:26;96005.56;;;19.18;55.09
40596;BME280;26304;48.794;9.820;2023-04-29T01:16:16;96006.31;;;19.18;55.23
40596;BME280;26304;48.794;9.820;2023-04-29T01:22:02;96009.28;;;19.20;56.08
40596;BME280;26304;48.794;9.820;2023-04-29T01:27:51;96011.56;;;19.18;55.02
40596;BME280;26304;48.794;9.820;2023-04-29T01:33:41;96015.34;;;19.14;55.38
40596;BME280;26304;48.794;9.820;2023-04-29T01:39:30;96019.47;;;19.11;55.46
40596;BME280;26304;48.794;9.820;2023-04-29T01:45:17;96014.63;;;19.06;55.91
40596;BME280;26304;48.794;9.820;2023-04-29T01:51:01;96008.97;;;19.08;55.55
40596;BME280;26304;48.794;9.820;2023-04-29T01:56:44;96013.47;;;19.11;55.41
40596;BME280;26304;48.794;9.820;2023-04-29T02:02:27;96008.94;;;19.11;55.62
40596;BME280;26304;48.794;9.820;2023-04-29T02:08:10;96007.09;;;19.12;55.46
40596;BME280;26304;48.794;9.820;2023-04-29T02:13:53;96003.69;;;19.08;55.38
40596;BME280;26304;48.794;9.820;2023-04-29T02:19:37;95996.56;;;19.04;55.62
40596;BME280;26304;48.794;9.820;2023-04-29T02:25:19;96006.34;;;19.04;55.38
40596;BME280;26304;48.794;9.820;2023-04-29T02:31:01;96013.88;;;19.02;55.58
40596;BME280;26304;48.794;9.820;2023-04-29T02:36:45;96017.28;;;18.99;55.54
40596;BME280;26304;48.794;9.820;2023-04-29T02:42:28;96005.59;;;19.00;55.69
40596;BME280;26304;48.794;9.820;2023-04-29T02:48:10;96011.25;;;18.98;55.54
40596;BME280;26304;48.794;9.820;2023-04-29T02:53:54;96008.22;;;19.00;55.44
40596;BME280;26304;48.794;9.820;2023-04-29T02:59:36;96015.78;;;18.98;55.31
40596;BME280;26304;48.794;9.820;2023-04-29T03:05:19;96012.00;;;18.95;55.58
40596;BME280;26304;48.794;9.820;2023-04-29T03:11:02;96020.66;;;18.99;55.55
40596;BME280;26304;48.794;9.820;2023-04-29T03:16:45;96022.56;;;18.99;55.44
40596;BME280;26304;48.794;9.820;2023-04-29T03:22:27;96020.28;;;18.94;55.45
40596;BME280;26304;48.794;9.820;2023-04-29T03:28:11;96010.88;;;18.96;55.67
40596;BME280;26304;48.794;9.820;2023-04-29T03:33:55;96012.03;;;18.88;56.49
40596;BME280;26304;48.794;9.820;2023-04-29T03:39:37;95998.84;;;18.92;55.48
40596;BME280;26304;48.794;9.820;2023-04-29T03:45:21;95993.94;;;18.94;56.58
40596;BME280;26304;48.794;9.820;2023-04-29T03:51:03;95996.97;;;18.88;56.32
40596;BME280;26304;48.794;9.820;2023-04-29T03:56:46;95996.59;;;18.90;56.14
40596;BME280;26304;48.794;9.820;2023-04-29T04:02:29;95992.44;;;19.00;55.63
40596;BME280;26304;48.794;9.820;2023-04-29T04:08:12;95999.19;;;19.04;56.06
40596;BME280;26304;48.794;9.820;2023-04-29T04:13:54;95998.81;;;19.06;55.83
40596;BME280;26304;48.794;9.820;2023-04-29T04:19:38;96011.16;;;19.23;56.51
40596;BME280;26304;48.794;9.820;2023-04-29T04:25:20;96015.31;;;19.24;56.98
40596;BME280;26304;48.794;9.820;2023-04-29T04:31:03;96020.94;;;19.27;56.79
40596;BME280;26304;48.794;9.820;2023-04-29T04:36:47;96027.69;;;19.31;57.01
40596;BME280;26304;48.794;9.820;2023-04-29T04:42:29;96038.25;;;19.24;56.79
40596;BME280;26304;48.794;9.820;2023-04-29T04:48:11;96043.91;;;19.22;56.62
40596;BME280;26304;48.794;9.820;2023-04-29T04:53:55;96042.44;;;19.21;56.50
40596;BME280;26304;48.794;9.820;2023-04-29T04:59:38;96045.06;;;19.14;56.48
40596;BME280;26304;48.794;9.820;2023-04-29T05:05:20;96050.34;;;19.18;56.68
40596;BME280;26304;48.794;9.820;2023-04-29T05:11:04;96055.63;;;19.18;56.47
40596;BME280;26304;48.794;9.820;2023-04-29T05:16:46;96062.41;;;19.08;56.66
40596;BME280;26304;48.794;9.820;2023-04-29T05:22:29;96054.13;;;19.06;56.91
40596;BME280;26304;48.794;9.820;2023-04-29T05:28:13;96072.16;;;19.29;57.42
40596;BME280;26304;48.794;9.820;2023-04-29T05:33:55;96079.31;;;19.21;57.92
40596;BME280;26304;48.794;9.820;2023-04-29T05:39:38;96097.00;;;19.24;57.63
40596;BME280;26304;48.794;9.820;2023-04-29T05:45:21;96098.13;;;19.27;57.18
40596;BME280;26304;48.794;9.820;2023-04-29T05:51:04;96109.44;;;19.28;57.06
40596;BME280;26304;48.794;9.820;2023-04-29T05:56:46;96109.03;;;19.26;57.18
40596;BME280;26304;48.794;9.820;2023-04-29T06:02:30;96121.84;;;19.27;57.26
40596;BME280;26304;48.794;9.820;2023-04-29T06:08:12;96120.72;;;19.24;57.53
40596;BME280;26304;48.794;9.820;2023-04-29T06:13:55;96124.84;;;19.29;57.28
40596;BME280;26304;48.794;9.820;2023-04-29T06:19:39;96132.38;;;19.31;56.63
40596;BME280;26304;48.794;9.820;2023-04-29T06:25:21;96149.69;;;19.35;56.93
40596;BME280;26304;48.794;9.820;2023-04-29T06:31:03;96158.34;;;19.29;56.98
40596;BME280;26304;48.794;9.820;2023-04-29T06:36:47;96162.88;;;19.32;56.90
40596;BME280;26304;48.794;9.820;2023-04-29T06:42:29;96169.28;;;19.31;56.48
40596;BME280;26304;48.794;9.820;2023-04-29T06:48:12;96172.28;;;19.33;56.40
40596;BME280;26304;48.794;9.820;2023-04-29T06:53:56;96178.28;;;19.37;56.45
40596;BME280;26304;48.794;9.820;2023-04-29T06:59:38;96177.91;;;19.35;56.32
40596;BME280;26304;48.794;9.820;2023-04-29T07:05:21;96181.69;;;19.30;56.58
40596;BME280;26304;48.794;9.820;2023-04-29T07:11:05;96186.97;;;19.34;56.72
40596;BME280;26304;48.794;9.820;2023-04-29T07:16:47;96183.94;;;19.32;56.16
40596;BME280;26304;48.794;9.820;2023-04-29T07:22:33;96203.16;;;19.29;56.52
40596;BME280;26304;48.794;9.820;2023-04-29T07:28:17;96202.41;;;19.32;56.23
40596;BME280;26304;48.794;9.820;2023-04-29T07:33:59;96205.44;;;19.34;56.05
40596;BME280;26304;48.794;9.820;2023-04-29T07:39:42;96214.81;;;19.35;55.96
40596;BME280;26304;48.794;9.820;2023-04-29T07:45:26;96212.97;;;19.35;56.04
40596;BME280;26304;48.794;9.820;2023-04-29T07:51:11;96221.59;;;19.36;56.12
40596;BME280;26304;48.794;9.820;2023-04-29T07:56:54;96222.00;;;19.34;56.09
40596;BME280;26304;48.794;9.820;2023-04-29T08:02:40;96232.16;;;19.36;55.96
40596;BME280;26304;48.794;9.820;2023-04-29T08:08:23;96238.91;;;19.37;56.30
40596;BME280;26304;48.794;9.820;2023-04-29T08:14:05;96247.97;;;19.32;55.91
40596;BME280;26304;48.794;9.820;2023-04-29T08:19:49;96245.72;;;19.34;56.45
40596;BME280;26304;48.794;9.820;2023-04-29T08:25:31;96253.22;;;19.43;56.78
40596;BME280;26304;48.794;9.820;2023-04-29T08:31:17;96249.09;;;19.35;56.87
40596;BME280;26304;48.794;9.820;2023-04-29T08:37:00;96253.22;;;19.43;56.79
40596;BME280;26304;48.794;9.820;2023-04-29T08:42:44;96252.84;;;19.41;57.11
40596;BME280;26304;48.794;9.820;2023-04-29T08:48:27;96256.59;;;19.40;57.17
40596;BME280;26304;48.794;9.820;2023-04-29T08:54:11;96254.34;;;19.24;57.03
40596;BME280;26304;48.794;9.820;2023-04-29T08:59:53;96259.66;;;19.28;56.92
40596;BME280;26304;48.794;9.820;2023-04-29T09:05:37;96258.13;;;19.23;57.34
40596;BME280;26304;48.794;9.820;2023-04-29T09:11:23;96258.13;;;19.30;57.22
40596;BME280;26304;48.794;9.820;2023-04-29T09:17:05;96262.63;;;19.37;57.06
40596;BME280;26304;48.794;9.820;2023-04-29T09:22:48;96266.03;;;19.41;56.93
40596;BME280;26304;48.794;9.820;2023-04-29T09:28:32;96270.19;;;19.42;57.01
40596;BME280;26304;48.794;9.820;2023-04-29T09:34:15;96279.22;;;19.41;57.01
40596;BME280;26304;48.794;9.820;2023-04-29T09:39:57;96279.19;;;19.45;56.79
40596;BME280;26304;48.794;9.820;2023-04-29T09:45:43;96280.34;;;19.47;56.65
40596;BME280;26304;48.794;9.820;2023-04-29T09:51:26;96289.00;;;19.48;56.32
40596;BME280;26304;48.794;9.820;2023-04-29T09:57:10;96299.56;;;19.44;56.23
40596;BME280;26304;48.794;9.820;2023-04-29T10:02:57;96291.28;;;19.42;56.52
40596;BME280;26304;48.794;9.820;2023-04-29T10:08:40;96297.28;;;19.46;56.56
40596;BME280;26304;48.794;9.820;2023-04-29T10:14:23;96300.31;;;19.48;56.29
40596;BME280;26304;48.794;9.820;2023-04-29T10:20:12;96305.56;;;19.55;56.31
40596;BME280;26304;48.794;9.820;2023-04-29T10:25:56;96308.19;;;19.59;56.71
40596;BME280;26304;48.794;9.820;2023-04-29T10:31:42;96298.03;;;19.68;56.96
40596;BME280;26304;48.794;9.820;2023-04-29T10:37:26;96300.28;;;19.70;57.30
40596;BME280;26304;48.794;9.820;2023-04-29T10:43:09;96295.78;;;19.74;57.37
40596;BME280;26304;48.794;9.820;2023-04-29T10:48:56;96286.72;;;19.86;57.30
40596;BME280;26304;48.794;9.820;2023-04-29T10:54:41;96281.09;;;19.80;57.50
40596;BME280;26304;48.794;9.820;2023-04-29T11:00:27;96279.19;;;19.84;57.66
40596;BME280;26304;48.794;9.820;2023-04-29T11:06:10;96290.13;;;19.83;57.56
40596;BME280;26304;48.794;9.820;2023-04-29T11:11:58;96289.00;;;19.80;57.45
40596;BME280;26304;48.794;9.820;2023-04-29T11:17:45;96289.34;;;19.89;57.90
40596;BME280;26304;48.794;9.820;2023-04-29T11:23:28;96286.69;;;20.04;58.31
40596;BME280;26304;48.794;9.820;2023-04-29T11:29:11;96285.97;;;19.96;58.69
40596;BME280;26304;48.794;9.820;2023-04-29T11:34:54;96290.50;;;19.52;57.30
40596;BME280;26304;48.794;9.820;2023-04-29T11:40:40;96289.00;;;19.22;57.58
40596;BME280;26304;48.794;9.820;2023-04-29T11:46:25;96285.59;;;19.40;57.23
40596;BME280;26304;48.794;9.820;2023-04-29T11:52:08;96293.84;;;18.92;57.07
40596;BME280;26304;48.794;9.820;2023-04-29T11:57:51;96298.69;;;18.79;57.63
40596;BME280;26304;48.794;9.820;2023-04-29T12:03:35;96293.13;;;18.87;57.23
40596;BME280;26304;48.794;9.820;2023-04-29T12:09:17;96284.00;;;18.67;57.60
40596;BME280;26304;48.794;9.820;2023-04-29T12:15:00;96283.94;;;18.49;56.22
40596;BME280;26304;48.794;9.820;2023-04-29T12:20:45;96287.34;;;18.57;56.01
40596;BME280;26304;48.794;9.820;2023-04-29T12:26:29;96288.44;;;18.41;56.39
40596;BME280;26304;48.794;9.820;2023-04-29T12:32:12;96291.44;;;18.40;56.68
40596;BME280;26304;48.794;9.820;2023-04-29T12:37:59;96290.28;;;18.37;56.50
40596;BME280;26304;48.794;9.820;2023-04-29T12:43:42;96288.06;;;18.43;56.02
40596;BME280;26304;48.794;9.820;2023-04-29T12:49:24;96288.09;;;18.54;55.24
40596;BME280;26304;48.794;9.820;2023-04-29T12:55:08;96288.44;;;18.45;54.72
40596;BME280;26304;48.794;9.820;2023-04-29T13:00:50;96296.59;;;18.22;54.68
40596;BME280;26304;48.794;9.820;2023-04-29T13:06:33;96287.97;;;18.25;54.43
40596;BME280;26304;48.794;9.820;2023-04-29T13:12:20;96281.59;;;18.26;55.04
40596;BME280;26304;48.794;9.820;2023-04-29T13:18:03;96293.28;;;18.36;55.19
40596;BME280;26304;48.794;9.820;2023-04-29T13:23:45;96295.53;;;18.33;54.26
40596;BME280;26304;48.794;9.820;2023-04-29T13:29:29;96299.25;;;18.22;54.59
40596;BME280;26304;48.794;9.820;2023-04-29T13:35:12;96307.53;;;18.27;54.46
40596;BME280;26304;48.794;9.820;2023-04-29T13:40:54;96304.59;;;18.43;54.03
40596;BME280;26304;48.794;9.820;2023-04-29T13:46:38;96295.56;;;18.44;53.70
40596;BME280;26304;48.794;9.820;2023-04-29T13:52:21;96306.88;;;18.52;53.03
40596;BME280;26304;48.794;9.820;2023-04-29T13:58:03;96307.16;;;18.25;53.41
40596;BME280;26304;48.794;9.820;2023-04-29T14:03:47;96316.97;;;18.39;53.33
40596;BME280;26304;48.794;9.820;2023-04-29T14:09:29;96313.53;;;18.21;52.96
40596;BME280;26304;48.794;9.820;2023-04-29T14:15:12;96309.00;;;18.18;52.69
40596;BME280;26304;48.794;9.820;2023-04-29T14:20:56;96316.94;;;18.28;52.92
40596;BME280;26304;48.794;9.820;2023-04-29T14:26:39;96316.84;;;18.10;52.58
40596;BME280;26304;48.794;9.820;2023-04-29T14:32:22;96323.97;;;18.06;52.85
40596;BME280;26304;48.794;9.820;2023-04-29T14:38:06;96334.91;;;18.12;53.20
40596;BME280;26304;48.794;9.820;2023-04-29T14:43:48;96336.78;;;18.08;53.10
40596;BME280;26304;48.794;9.820;2023-04-29T14:49:31;96339.78;;;18.10;53.87
40596;BME280;26304;48.794;9.820;2023-04-29T14:55:14;96343.66;;;18.30;54.70
40596;BME280;26304;48.794;9.820;2023-04-29T15:00:57;96342.75;;;18.05;54.13
40596;BME280;26304;48.794;9.820;2023-04-29T15:06:39;96345.19;;;18.42;54.56
40596;BME280;26304;48.794;9.820;2023-04-29T15:12:23;96351.84;;;18.18;53.73
40596;BME280;26304;48.794;9.820;2023-04-29T15:18:06;96351.91;;;18.29;53.96
40596;BME280;26304;48.794;9.820;2023-04-29T15:23:48;96361.59;;;18.14;54.33
40596;BME280;26304;48.794;9.820;2023-04-29T15:29:32;96360.16;;;18.24;54.72
40596;BME280;26304;48.794;9.820;2023-04-29T15:35:17;96373.56;;;18.04;55.10
40596;BME280;26304;48.794;9.820;2023-04-29T15:40:59;96381.97;;;18.28;54.88
40596;BME280;26304;48.794;9.820;2023-04-29T15:46:44;96390.84;;;18.05;54.68
40596;BME280;26304;48.794;9.820;2023-04-29T15:52:27;96386.06;;;18.18;54.14
40596;BME280;26304;48.794;9.820;2023-04-29T15:58:09;96399.72;;;18.38;55.08
40596;BME280;26304;48.794;9.820;2023-04-29T16:03:54;96407.72;;;18.60;57.34
40596;BME280;26304;48.794;9.820;2023-04-29T16:09:36;96407.78;;;18.74;55.14
40596;BME280;26304;48.794;9.820;2023-04-29T16:15:19;96421.59;;;18.53;55.64
40596;BME280;26304;48.794;9.820;2023-04-29T16:21:04;96423.72;;;17.85;56.75
40596;BME280;26304;48.794;9.820;2023-04-29T16:26:46;96433.47;;;17.81;55.78
40596;BME280;26304;48.794;9.820;2023-04-29T16:32:29;96427.34;;;18.14;54.36
40596;BME280;26304;48.794;9.820;2023-04-29T16:38:14;96432.84;;;17.94;53.97
40596;BME280;26304;48.794;9.820;2023-04-29T16:43:56;96431.88;;;18.17;54.15
40596;BME280;26304;48.794;9.820;2023-04-29T16:49:39;96428.94;;;17.77;59.44
40596;BME280;26304;48.794;9.820;2023-04-29T16:55:23;96434.00;;;17.97;57.66
40596;BME280;26304;48.794;9.820;2023-04-29T17:01:06;96434.22;;;17.77;57.98
40596;BME280;26304;48.794;9.820;2023-04-29T17:06:49;96429.97;;;18.10;57.22
40596;BME280;26304;48.794;9.820;2023-04-29T17:12:33;96437.59;;;18.23;56.57
40596;BME280;26304;48.794;9.820;2023-04-29T17:18:15;96439.94;;;18.42;56.06
40596;BME280;26304;48.794;9.820;2023-04-29T17:23:59;96437.34;;;18.46;56.91
40596;BME280;26304;48.794;9.820;2023-04-29T17:29:43;96440.16;;;18.82;56.32
40596;BME280;26304;48.794;9.820;2023-04-29T17:35:25;96438.78;;;18.99;55.84
40596;BME280;26304;48.794;9.820;2023-04-29T17:41:09;96441.03;;;19.00;54.62
40596;BME280;26304;48.794;9.820;2023-04-29T17:46:53;96437.63;;;18.96;54.77
40596;BME280;26304;48.794;9.820;2023-04-29T17:52:35;96452.19;;;18.76;54.71
40596;BME280;26304;48.794;9.820;2023-04-29T17:58:18;96449.69;;;19.01;54.93
40596;BME280;26304;48.794;9.820;2023-04-29T18:04:02;96450.47;;;19.12;55.40
40596;BME280;26304;48.794;9.820;2023-04-29T18:09:45;96455.38;;;19.17;55.71
40596;BME280;26304;48.794;9.820;2023-04-29T18:15:28;96463.34;;;19.24;55.45
40596;BME280;26304;48.794;9.820;2023-04-29T18:21:19;96473.16;;;19.38;55.32
40596;BME280;26304;48.794;9.820;2023-04-29T18:27:03;96473.50;;;19.37;55.36
40596;BME280;26304;48.794;9.820;2023-04-29T18:32:45;96472.78;;;19.40;55.28
40596;BME280;26304;48.794;9.820;2023-04-29T18:38:29;96471.28;;;19.42;55.40
40596;BME280;26304;48.794;9.820;2023-04-29T18:44:11;96478.84;;;19.55;55.26
40596;BME280;26304;48.794;9.820;2023-04-29T18:49:54;96482.59;;;19.54;55.74
40596;BME280;26304;48.794;9.820;2023-04-29T18:55:38;96485.63;;;19.52;55.29
40596;BME280;26304;48.794;9.820;2023-04-29T19:01:20;96494.31;;;19.56;55.55
40596;BME280;26304;48.794;9.820;2023-04-29T19:07:03;96507.50;;;19.60;55.70
40596;BME280;26304;48.794;9.820;2023-04-29T19:12:47;96513.50;;;19.60;55.54
40596;BME280;26304;48.794;9.820;2023-04-29T19:18:29;96511.28;;;19.63;55.37
40596;BME280;26304;48.794;9.820;2023-04-29T19:24:12;96498.84;;;19.63;55.49
40596;BME280;26304;48.794;9.820;2023-04-29T19:29:55;96513.53;;;19.68;55.53
40596;BME280;26304;48.794;9.820;2023-04-29T19:35:38;96522.19;;;19.72;55.35
40596;BME280;26304;48.794;9.820;2023-04-29T19:41:20;96523.94;;;19.24;53.18
40596;BME280;26304;48.794;9.820;2023-04-29T19:47:04;96523.84;;;19.06;52.09
40596;BME280;26304;48.794;9.820;2023-04-29T19:52:47;96527.50;;;18.84;52.42
40596;BME280;26304;48.794;9.820;2023-04-29T19:58:29;96528.00;;;18.52;52.90
40596;BME280;26304;48.794;9.820;2023-04-29T20:04:13;96528.66;;;18.86;52.23
40596;BME280;26304;48.794;9.820;2023-04-29T20:09:55;96530.63;;;19.08;52.21
40596;BME280;26304;48.794;9.820;2023-04-29T20:15:38;96539.31;;;19.12;52.47
40596;BME280;26304;48.794;9.820;2023-04-29T20:21:22;96541.97;;;19.15;52.23
40596;BME280;26304;48.794;9.820;2023-04-29T20:27:04;96547.63;;;19.17;52.64
40596;BME280;26304;48.794;9.820;2023-04-29T20:32:47;96550.25;;;19.17;52.82
40596;BME280;26304;48.794;9.820;2023-04-29T20:38:31;96557.06;;;19.18;53.32
40596;BME280;26304;48.794;9.820;2023-04-29T20:44:15;96560.81;;;19.17;52.96
40596;BME280;26304;48.794;9.820;2023-04-29T20:49:57;96566.06;;;19.17;53.03
40596;BME280;26304;48.794;9.820;2023-04-29T20:55:42;96559.31;;;19.16;53.00
40596;BME280;26304;48.794;9.820;2023-04-29T21:01:24;96563.06;;;19.19;53.10
40596;BME280;26304;48.794;9.820;2023-04-29T21:07:06;96573.97;;;19.17;53.06
40596;BME280;26304;48.794;9.820;2023-04-29T21:12:51;96573.22;;;19.17;53.45
40596;BME280;26304;48.794;9.820;2023-04-29T21:18:34;96569.47;;;19.18;53.23
40596;BME280;26304;48.794;9.820;2023-04-29T21:24:16;96574.34;;;19.16;53.03
40596;BME280;26304;48.794;9.820;2023-04-29T21:30:00;96584.13;;;19.15;53.07
40596;BME280;26304;48.794;9.820;2023-04-29T21:35:42;96584.13;;;19.15;53.15
40596;BME280;26304;48.794;9.820;2023-04-29T21:41:28;96581.88;;;19.14;53.11
40596;BME280;26304;48.794;9.820;2023-04-29T21:47:13;96577.75;;;19.16;53.35
40596;BME280;26304;48.794;9.820;2023-04-29T21:52:56;96577.75;;;19.16;53.18
40596;BME280;26304;48.794;9.820;2023-04-29T21:58:38;96579.59;;;19.12;53.56
40596;BME280;26304;48.794;9.820;2023-04-29T22:04:22;96574.34;;;19.12;53.11
40596;BME280;26304;48.794;9.820;2023-04-29T22:10:06;96581.84;;;19.10;53.28
40596;BME280;26304;48.794;9.820;2023-04-29T22:15:48;96585.22;;;19.11;53.52
40596;BME280;26304;48.794;9.820;2023-04-29T22:21:32;96580.34;;;19.09;53.40
40596;BME280;26304;48.794;9.820;2023-04-29T22:27:14;96581.84;;;19.10;53.55
40596;BME280;26304;48.794;9.820;2023-04-29T22:32:57;96585.22;;;19.11;53.38
40596;BME280;26304;48.794;9.820;2023-04-29T22:38:40;96587.13;;;19.10;53.34
40596;BME280;26304;48.794;9.820;2023-04-29T22:44:23;96590.88;;;19.09;53.50
40596;BME280;26304;48.794;9.820;2023-04-29T22:50:06;96596.88;;;19.10;53.42
40596;BME280;26304;48.794;9.820;2023-04-29T22:55:52;96596.16;;;19.09;53.37
40596;BME280;26304;48.794;9.820;2023-04-29T23:01:35;96600.66;;;19.09;53.55
40596;BME280;26304;48.794;9.820;2023-04-29T23:07:17;96601.03;;;19.07;53.54
40596;BME280;26304;48.794;9.820;2023-04-29T23:13:01;96591.59;;;19.06;53.54
40596;BME280;26304;48.794;9.820;2023-04-29T23:18:43;96588.22;;;19.05;53.51
40596;BME280;26304;48.794;9.820;2023-04-29T23:24:26;96595.00;;;19.06;53.44
40596;BME280;26304;48.794;9.820;2023-04-29T23:30:10;96595.34;;;19.05;53.69
40596;BME280;26304;48.794;9.820;2023-04-29T23:35:53;96594.25;;;19.06;53.04
40596;BME280;26304;48.794;9.820;2023-04-29T23:41:35;96593.13;;;19.03;53.47
40596;BME280;26304;48.794;9.820;2023-04-29T23:47:19;96595.34;;;19.05;53.70
40596;BME280;26304;48.794;9.820;2023-04-29T23:53:01;96603.59;;;19.00;53.86
40596;BME280;26304;48.794;9.820;2023-04-29T23:58:44;96595.72;;;19.00;53.76
